createdAt,value
2023-03-17T00:00:39.225Z,98188.94
2023-03-17T00:03:06.895Z,98174.41
2023-03-17T00:05:38.973Z,98185.69
2023-03-17T00:08:12.925Z,98173.47
2023-03-17T00:10:39.377Z,98176.84
2023-03-17T00:13:06.790Z,98167.63
2023-03-17T00:15:33.795Z,98161.25
2023-03-17T00:18:00.278Z,98160.53
2023-03-17T00:20:31.049Z,98167.75
2023-03-17T00:23:01.080Z,98167.50
2023-03-17T00:25:29.630Z,98160.09
2023-03-17T00:27:58.387Z,98154.03
2023-03-17T00:30:25.461Z,98170.91
2023-03-17T00:32:55.642Z,98152.78
2023-03-17T00:35:24.940Z,98161.81
2023-03-17T00:37:53.611Z,98159.50
2023-03-17T00:40:23.436Z,98160.09
2023-03-17T00:42:52.223Z,98159.03
2023-03-17T00:45:23.581Z,98150.09
2023-03-17T00:47:52.377Z,98156.13
2023-03-17T00:50:24.653Z,98154.97
2023-03-17T00:52:54.186Z,98159.13
2023-03-17T00:55:22.325Z,98151.47
2023-03-17T00:57:50.054Z,98153.56
2023-03-17T01:00:26.435Z,98149.13
2023-03-17T01:02:54.892Z,98141.72
2023-03-17T01:05:23.701Z,98133.88
2023-03-17T01:07:54.253Z,98128.22
2023-03-17T01:10:26.542Z,98128.22
2023-03-17T01:12:55.541Z,98131.94
2023-03-17T01:15:23.059Z,98140.06
2023-03-17T01:17:50.664Z,98140.66
2023-03-17T01:20:23.714Z,98143.06
2023-03-17T01:22:50.855Z,98146.56
2023-03-17T01:25:18.978Z,98140.38
2023-03-17T01:27:47.010Z,98148.88
2023-03-17T01:30:13.778Z,98135.63
2023-03-17T01:32:40.284Z,98133.06
2023-03-17T01:35:07.205Z,98132.13
2023-03-17T01:37:33.671Z,98122.25
2023-03-17T01:40:00.146Z,98116.44
2023-03-17T01:42:27.043Z,98115.63
2023-03-17T01:45:07.181Z,98113.09
2023-03-17T01:47:34.127Z,98109.72
2023-03-17T01:50:08.692Z,98116.09
2023-03-17T01:52:38.280Z,98105.28
2023-03-17T01:55:17.822Z,98096.59
2023-03-17T01:57:51.480Z,98096.59
2023-03-17T02:00:20.789Z,98099.41
2023-03-17T02:02:50.484Z,98093.91
2023-03-17T02:05:21.662Z,98092.41
2023-03-17T02:07:48.459Z,98094.13
2023-03-17T02:10:19.227Z,98087.28
2023-03-17T02:12:48.380Z,98097.06
2023-03-17T02:15:15.396Z,98089.25
2023-03-17T02:17:42.384Z,98083.69
2023-03-17T02:20:29.652Z,98093.22
2023-03-17T02:22:57.329Z,98100.56
2023-03-17T02:25:25.941Z,98100.69
2023-03-17T02:27:57.146Z,98103.34
2023-03-17T02:30:24.857Z,98104.97
2023-03-17T02:32:51.863Z,98101.25
2023-03-17T02:35:19.611Z,98105.66
2023-03-17T02:37:47.015Z,98099.16
2023-03-17T02:40:14.733Z,98101.38
2023-03-17T02:42:42.028Z,98105.19
2023-03-17T02:45:11.560Z,98097.63
2023-03-17T02:47:38.391Z,98105.09
2023-03-17T02:50:06.217Z,98106.59
2023-03-17T02:52:32.846Z,98109.16
2023-03-17T02:54:59.303Z,98102.16
2023-03-17T02:57:25.966Z,98105.19
2023-03-17T02:59:52.461Z,98101.69
2023-03-17T03:02:18.949Z,98108.91
2023-03-17T03:04:46.200Z,98099.88
2023-03-17T03:07:12.658Z,98104.97
2023-03-17T03:09:39.192Z,98100.28
2023-03-17T03:12:06.042Z,98109.94
2023-03-17T03:14:32.521Z,98107.38
2023-03-17T03:16:59.642Z,98090.41
2023-03-17T03:19:26.281Z,98085.75
2023-03-17T03:21:52.844Z,98087.94
2023-03-17T03:24:19.382Z,98091.22
2023-03-17T03:26:45.876Z,98090.16
2023-03-17T03:29:12.603Z,98090.50
2023-03-17T03:31:39.154Z,98087.72
2023-03-17T03:34:05.895Z,98093.44
2023-03-17T03:36:32.371Z,98086.34
2023-03-17T03:38:59.825Z,98094.09
2023-03-17T03:41:27.250Z,98094.22
2023-03-17T03:43:53.782Z,98089.56
2023-03-17T03:46:20.386Z,98095.25
2023-03-17T03:48:47.003Z,98096.78
2023-03-17T03:51:13.439Z,98107.00
2023-03-17T03:53:39.873Z,98109.78
2023-03-17T03:56:06.935Z,98101.66
2023-03-17T03:58:33.482Z,98106.28
2023-03-17T04:01:04.472Z,98105.16
2023-03-17T04:03:30.962Z,98098.84
2023-03-17T04:05:57.727Z,98085.25
2023-03-17T04:08:24.259Z,98094.91
2023-03-17T04:10:50.711Z,98092.47
2023-03-17T04:13:17.170Z,98081.09
2023-03-17T04:15:43.631Z,98087.72
2023-03-17T04:18:10.110Z,98086.91
2023-03-17T04:20:36.846Z,98083.41
2023-03-17T04:23:03.302Z,98080.81
2023-03-17T04:25:30.311Z,98088.31
2023-03-17T04:27:57.145Z,98096.78
2023-03-17T04:30:23.878Z,98098.16
2023-03-17T04:32:51.236Z,98093.50
2023-03-17T04:35:20.816Z,98092.31
2023-03-17T04:37:48.453Z,98095.84
2023-03-17T04:40:16.780Z,98100.13
2023-03-17T04:42:43.422Z,98099.16
2023-03-17T04:45:14.081Z,98096.16
2023-03-17T04:47:41.312Z,98101.03
2023-03-17T04:50:08.953Z,98103.22
2023-03-17T04:52:36.810Z,98100.53
2023-03-17T04:55:04.414Z,98093.63
2023-03-17T04:57:30.949Z,98093.47
2023-03-17T04:59:57.641Z,98099.31
2023-03-17T05:02:24.442Z,98106.03
2023-03-17T05:04:50.953Z,98106.47
2023-03-17T05:07:17.464Z,98107.75
2023-03-17T05:09:43.964Z,98113.31
2023-03-17T05:12:10.905Z,98099.63
2023-03-17T05:14:37.465Z,98104.72
2023-03-17T05:17:04.193Z,98098.19
2023-03-17T05:19:30.683Z,98096.16
2023-03-17T05:21:57.256Z,98096.25
2023-03-17T05:24:24.286Z,98090.19
2023-03-17T05:26:50.768Z,98091.22
2023-03-17T05:29:17.326Z,98093.19
2023-03-17T05:31:44.021Z,98095.97
2023-03-17T05:34:10.557Z,98096.31
2023-03-17T05:36:37.548Z,98095.47
2023-03-17T05:39:05.111Z,98102.66
2023-03-17T05:41:31.671Z,98097.47
2023-03-17T05:43:58.187Z,98090.88
2023-03-17T05:46:24.811Z,98094.94
2023-03-17T05:48:51.303Z,98099.34
2023-03-17T05:51:17.898Z,98102.66
2023-03-17T05:53:44.448Z,98105.66
2023-03-17T05:56:10.891Z,98106.84
2023-03-17T05:58:37.341Z,98108.38
2023-03-17T06:01:04.013Z,98114.84
2023-03-17T06:03:30.627Z,98122.78
2023-03-17T06:05:57.398Z,98122.09
2023-03-17T06:08:23.911Z,98124.69
2023-03-17T06:10:50.552Z,98124.44
2023-03-17T06:13:17.129Z,98121.59
2023-03-17T06:15:44.198Z,98124.75
2023-03-17T06:18:10.796Z,98122.66
2023-03-17T06:20:37.543Z,98125.59
2023-03-17T06:23:05.831Z,98126.78
2023-03-17T06:25:35.126Z,98115.41
2023-03-17T06:28:03.948Z,98119.25
2023-03-17T06:30:33.083Z,98125.19
2023-03-17T06:33:00.463Z,98132.06
2023-03-17T06:35:27.633Z,98122.63
2023-03-17T06:37:54.826Z,98125.91
2023-03-17T06:40:21.498Z,98116.13
2023-03-17T06:42:48.361Z,98118.56
2023-03-17T06:45:15.263Z,98124.84
2023-03-17T06:47:41.809Z,98130.78
2023-03-17T06:50:09.841Z,98135.88
2023-03-17T06:52:37.324Z,98141.59
2023-03-17T06:55:04.785Z,98136.72
2023-03-17T06:57:31.764Z,98142.41
2023-03-17T06:59:58.342Z,98147.16
2023-03-17T07:02:24.964Z,98137.72
2023-03-17T07:04:52.102Z,98139.88
2023-03-17T07:07:20.322Z,98138.34
2023-03-17T07:09:47.829Z,98147.34
2023-03-17T07:12:14.543Z,98130.19
2023-03-17T07:14:41.740Z,98128.75
2023-03-17T07:17:12.841Z,98135.72
2023-03-17T07:19:39.957Z,98138.25
2023-03-17T07:22:07.190Z,98142.47
2023-03-17T07:24:33.924Z,98137.50
2023-03-17T07:27:00.528Z,98141.66
2023-03-17T07:29:28.507Z,98132.97
2023-03-17T07:31:55.181Z,98132.72
2023-03-17T07:34:22.230Z,98126.84
2023-03-17T07:36:48.845Z,98133.13
2023-03-17T07:39:15.610Z,98129.06
2023-03-17T07:41:42.817Z,98126.44
2023-03-17T07:44:09.759Z,98119.66
2023-03-17T07:46:36.842Z,98120.09
2023-03-17T07:49:03.394Z,98115.47
2023-03-17T07:51:30.132Z,98117.88
2023-03-17T07:54:03.380Z,98112.84
2023-03-17T07:56:31.019Z,98111.84
2023-03-17T07:58:59.117Z,98103.75
2023-03-17T08:01:26.808Z,98110.53
2023-03-17T08:03:53.570Z,98113.53
2023-03-17T08:06:20.379Z,98112.19
2023-03-17T08:08:47.085Z,98115.69
2023-03-17T08:11:14.311Z,98109.13
2023-03-17T08:13:40.821Z,98116.59
2023-03-17T08:16:08.084Z,98115.03
2023-03-17T08:18:34.930Z,98123.53
2023-03-17T08:21:02.085Z,98117.31
2023-03-17T08:23:28.774Z,98117.69
2023-03-17T08:26:00.176Z,98122.09
2023-03-17T08:28:27.141Z,98122.28
2023-03-17T08:30:54.477Z,98123.97
2023-03-17T08:33:21.498Z,98118.13
2023-03-17T08:35:48.425Z,98119.28
2023-03-17T08:38:14.938Z,98124.03
2023-03-17T08:40:42.718Z,98119.25
2023-03-17T08:43:09.224Z,98107.22
2023-03-17T08:45:35.890Z,98109.38
2023-03-17T08:48:03.210Z,98104.41
2023-03-17T08:50:30.843Z,98098.50
2023-03-17T08:52:57.691Z,98091.66
2023-03-17T08:55:24.237Z,98088.78
2023-03-17T08:57:51.275Z,98084.75
2023-03-17T09:00:20.529Z,98083.75
2023-03-17T09:02:48.797Z,98072.28
2023-03-17T09:05:16.878Z,98065.09
2023-03-17T09:07:44.051Z,98075.59
2023-03-17T09:10:11.602Z,98060.19
2023-03-17T09:12:38.338Z,98057.50
2023-03-17T09:15:07.712Z,98066.00
2023-03-17T09:17:34.734Z,98067.28
2023-03-17T09:20:01.249Z,98065.56
2023-03-17T09:22:27.721Z,98050.50
2023-03-17T09:24:54.250Z,98057.13
2023-03-17T09:27:20.942Z,98054.25
2023-03-17T09:29:47.490Z,98052.88
2023-03-17T09:32:14.011Z,98051.84
2023-03-17T09:34:40.629Z,98052.78
2023-03-17T09:37:07.230Z,98041.53
2023-03-17T09:39:34.192Z,98040.97
2023-03-17T09:42:12.531Z,98038.25
2023-03-17T09:45:06.499Z,98043.91
2023-03-17T09:48:17.165Z,98040.13
2023-03-17T09:50:55.816Z,98029.78
2023-03-17T09:53:35.125Z,98033.72
2023-03-17T09:56:23.318Z,98027.78
2023-03-17T09:59:30.005Z,98024.84
2023-03-17T10:01:57.117Z,98024.72
2023-03-17T10:04:24.099Z,98015.38
2023-03-17T10:06:51.953Z,98020.25
2023-03-17T10:09:27.140Z,98009.94
2023-03-17T10:12:27.787Z,98007.25
2023-03-17T10:15:13.537Z,98012.81
2023-03-17T10:17:42.226Z,98004.84
2023-03-17T10:20:18.502Z,98005.00
2023-03-17T10:22:48.296Z,98009.56
2023-03-17T10:25:18.965Z,98003.03
2023-03-17T10:27:53.089Z,98008.78
2023-03-17T10:30:22.285Z,97997.06
2023-03-17T10:32:50.238Z,97983.78
2023-03-17T10:35:18.318Z,97979.09
2023-03-17T10:37:47.724Z,97976.06
2023-03-17T10:40:30.386Z,97974.13
2023-03-17T10:43:11.133Z,97972.09
2023-03-17T10:45:46.380Z,97975.72
2023-03-17T10:48:18.686Z,97968.22
2023-03-17T10:50:48.624Z,97966.63
2023-03-17T10:53:28.349Z,97973.25
2023-03-17T10:56:09.565Z,97983.88
2023-03-17T10:58:41.651Z,97990.72
2023-03-17T11:01:20.158Z,97981.25
2023-03-17T11:03:47.931Z,97981.19
2023-03-17T11:06:19.362Z,97978.69
2023-03-17T11:08:54.823Z,97974.84
2023-03-17T11:11:30.266Z,97974.72
2023-03-17T11:14:13.439Z,97969.31
2023-03-17T11:16:53.489Z,97970.69
2023-03-17T11:19:31.151Z,97968.47
2023-03-17T11:22:09.854Z,97959.09
2023-03-17T11:24:46.668Z,97958.06
2023-03-17T11:27:30.181Z,97955.72
2023-03-17T11:30:37.105Z,97963.19
2023-03-17T11:33:36.262Z,97960.75
2023-03-17T11:36:41.234Z,97957.66
2023-03-17T11:39:23.035Z,97953.00
2023-03-17T11:42:13.845Z,97947.41
2023-03-17T11:44:55.214Z,97945.63
2023-03-17T11:48:00.990Z,97946.78
2023-03-17T11:50:58.468Z,97943.72
2023-03-17T11:53:45.479Z,97949.06
2023-03-17T11:56:28.200Z,97943.88
2023-03-17T11:59:06.417Z,97942.50
2023-03-17T12:01:49.398Z,97932.78
2023-03-17T12:04:35.022Z,97924.66
2023-03-17T12:07:14.350Z,97923.88
2023-03-17T12:09:50.230Z,97918.53
2023-03-17T12:12:22.954Z,97923.91
2023-03-17T12:14:52.345Z,97913.25
2023-03-17T12:17:25.791Z,97912.19
2023-03-17T12:19:57.167Z,97908.00
2023-03-17T12:22:32.866Z,97899.19
2023-03-17T12:25:16.442Z,97905.50
2023-03-17T12:27:53.303Z,97891.88
2023-03-17T12:30:33.104Z,97906.78
2023-03-17T12:33:07.400Z,97904.53
2023-03-17T12:35:36.870Z,97899.91
2023-03-17T12:38:40.645Z,97894.72
2023-03-17T12:41:37.669Z,97897.25
2023-03-17T12:44:13.302Z,97887.81
2023-03-17T12:47:07.482Z,97891.38
2023-03-17T12:49:58.700Z,97901.88
2023-03-17T12:52:45.414Z,97898.00
2023-03-17T12:55:18.152Z,97896.16
2023-03-17T12:57:47.934Z,97904.06
2023-03-17T13:00:29.513Z,97904.91
2023-03-17T13:03:26.287Z,97907.00
2023-03-17T13:05:58.285Z,97903.53
2023-03-17T13:08:31.201Z,97905.84
2023-03-17T13:11:16.381Z,97905.59
2023-03-17T13:13:59.326Z,97899.31
2023-03-17T13:16:41.039Z,97901.44
2023-03-17T13:19:24.992Z,97903.31
2023-03-17T13:22:13.052Z,97901.72
2023-03-17T13:24:47.333Z,97896.66
2023-03-17T13:27:44.597Z,97900.28
2023-03-17T13:30:25.833Z,97896.53
2023-03-17T13:32:57.382Z,97901.81
2023-03-17T13:35:53.083Z,97907.56
2023-03-17T13:38:52.491Z,97910.28
2023-03-17T13:41:29.508Z,97899.69
2023-03-17T13:44:17.781Z,97906.25
2023-03-17T13:46:47.038Z,97896.69
2023-03-17T13:49:27.574Z,97904.28
2023-03-17T13:52:07.487Z,97908.94
2023-03-17T13:54:40.906Z,97906.25
2023-03-17T13:57:25.642Z,97902.56
2023-03-17T14:00:05.646Z,97905.53
2023-03-17T14:02:36.428Z,97910.41
2023-03-17T14:05:18.281Z,97912.81
2023-03-17T14:07:50.925Z,97903.66
2023-03-17T14:10:21.772Z,97905.00
2023-03-17T14:13:17.062Z,97899.84
2023-03-17T14:16:04.305Z,97901.50
2023-03-17T14:18:40.343Z,97897.81
2023-03-17T14:21:19.269Z,97898.78
2023-03-17T14:23:56.268Z,97902.16
2023-03-17T14:26:30.764Z,97898.63
2023-03-17T14:29:02.761Z,97898.13
2023-03-17T14:31:30.022Z,97898.63
2023-03-17T14:34:00.931Z,97907.13
2023-03-17T14:36:32.439Z,97899.56
2023-03-17T14:38:58.946Z,97903.59
2023-03-17T14:41:27.449Z,97897.13
2023-03-17T14:43:58.926Z,97893.78
2023-03-17T14:46:30.602Z,97892.97
2023-03-17T14:49:14.333Z,97888.34
2023-03-17T14:51:42.065Z,97892.22
2023-03-17T14:54:18.269Z,97887.50
2023-03-17T14:56:50.950Z,97887.72
2023-03-17T14:59:23.628Z,97896.50
2023-03-17T15:01:55.344Z,97888.84
2023-03-17T15:04:28.629Z,97882.91
2023-03-17T15:06:57.649Z,97892.38
2023-03-17T15:09:34.819Z,97888.16
2023-03-17T15:12:16.189Z,97888.03
2023-03-17T15:14:45.503Z,97889.31
2023-03-17T15:17:33.771Z,97892.31
2023-03-17T15:20:14.099Z,97896.47
2023-03-17T15:22:57.453Z,97892.75
2023-03-17T15:25:27.770Z,97888.09
2023-03-17T15:27:55.870Z,97897.22
2023-03-17T15:30:22.631Z,97891.91
2023-03-17T15:33:00.569Z,97888.81
2023-03-17T15:35:27.662Z,97899.16
2023-03-17T15:37:54.973Z,97881.19
2023-03-17T15:40:21.607Z,97886.56
2023-03-17T15:42:49.374Z,97893.88
2023-03-17T15:45:17.028Z,97898.53
2023-03-17T15:47:45.410Z,97899.22
2023-03-17T15:50:14.787Z,97891.50
2023-03-17T15:52:41.307Z,97884.75
2023-03-17T15:55:35.347Z,97893.72
2023-03-17T15:58:01.831Z,97891.63
2023-03-17T16:00:30.120Z,97890.66
2023-03-17T16:03:01.362Z,97882.31
2023-03-17T16:05:31.190Z,97884.00
2023-03-17T16:07:57.800Z,97883.00
2023-03-17T16:10:26.852Z,97882.66
2023-03-17T16:12:53.699Z,97876.44
2023-03-17T16:15:26.524Z,97871.38
2023-03-17T16:17:58.368Z,97880.53
2023-03-17T16:20:27.259Z,97880.53
2023-03-17T16:22:56.004Z,97883.94
2023-03-17T16:25:31.547Z,97878.91
2023-03-17T16:28:05.166Z,97876.75
2023-03-17T16:30:34.433Z,97868.13
2023-03-17T16:33:03.974Z,97883.00
2023-03-17T16:35:30.616Z,97887.06
2023-03-17T16:37:57.176Z,97887.59
2023-03-17T16:40:33.355Z,97887.09
2023-03-17T16:43:00.361Z,97893.69
2023-03-17T16:45:29.866Z,97896.72
2023-03-17T16:47:57.264Z,97899.75
2023-03-17T16:50:26.688Z,97896.81
2023-03-17T16:52:53.487Z,97896.53
2023-03-17T16:55:21.909Z,97895.94
2023-03-17T16:57:51.810Z,97907.75
2023-03-17T17:00:22.139Z,97910.34
2023-03-17T17:02:49.866Z,97917.78
2023-03-17T17:05:17.767Z,97913.53
2023-03-17T17:07:44.359Z,97918.56
2023-03-17T17:10:13.107Z,97913.53
2023-03-17T17:12:40.827Z,97922.50
2023-03-17T17:15:08.315Z,97932.88
2023-03-17T17:17:36.876Z,97927.78
2023-03-17T17:20:04.714Z,97923.28
2023-03-17T17:22:31.177Z,97927.84
2023-03-17T17:24:57.609Z,97930.38
2023-03-17T17:27:24.177Z,97941.41
2023-03-17T17:29:50.753Z,97937.47
2023-03-17T17:32:19.031Z,97944.56
2023-03-17T17:34:45.493Z,97936.19
2023-03-17T17:37:12.536Z,97944.06
2023-03-17T17:39:39.107Z,97952.06
2023-03-17T17:42:05.917Z,97961.66
2023-03-17T17:44:32.379Z,97963.16
2023-03-17T17:46:58.888Z,97960.47
2023-03-17T17:49:25.633Z,97970.03
2023-03-17T17:51:52.091Z,97972.22
2023-03-17T17:54:18.578Z,97976.50
2023-03-17T17:56:46.920Z,97976.31
2023-03-17T17:59:14.590Z,97978.66
2023-03-17T18:01:41.416Z,97976.38
2023-03-17T18:04:09.579Z,97970.03
2023-03-17T18:06:36.218Z,97975.94
2023-03-17T18:09:02.863Z,97978.44
2023-03-17T18:11:29.474Z,97973.22
2023-03-17T18:13:55.969Z,97981.38
2023-03-17T18:16:24.217Z,97978.09
2023-03-17T18:18:51.038Z,97973.41
2023-03-17T18:21:17.743Z,97981.16
2023-03-17T18:23:47.224Z,97975.38
2023-03-17T18:26:16.461Z,97976.00
2023-03-17T18:28:44.003Z,97983.22
2023-03-17T18:31:16.510Z,97984.94
2023-03-17T18:33:45.120Z,97995.34
2023-03-17T18:36:12.136Z,97987.31
2023-03-17T18:38:38.870Z,97991.16
2023-03-17T18:41:07.237Z,97987.69
2023-03-17T18:43:34.122Z,97984.25
2023-03-17T18:46:00.687Z,97993.78
2023-03-17T18:48:27.280Z,97996.19
2023-03-17T18:50:53.913Z,97994.59
2023-03-17T18:53:20.492Z,97997.88
2023-03-17T18:55:47.142Z,98002.75
2023-03-17T18:58:13.665Z,98001.19
2023-03-17T19:00:40.456Z,98004.72
2023-03-17T19:03:07.094Z,98001.72
2023-03-17T19:05:38.181Z,98005.28
2023-03-17T19:08:04.797Z,98002.88
2023-03-17T19:10:31.783Z,98000.97
2023-03-17T19:12:58.881Z,98003.97
2023-03-17T19:15:26.063Z,97999.88
2023-03-17T19:17:52.971Z,98008.28
2023-03-17T19:20:20.038Z,97999.38
2023-03-17T19:22:46.523Z,98009.06
2023-03-17T19:25:13.089Z,98016.88
2023-03-17T19:27:40.064Z,98014.22
2023-03-17T19:30:07.231Z,98014.78
2023-03-17T19:32:33.724Z,98012.63
2023-03-17T19:35:00.423Z,98011.53
2023-03-17T19:37:27.066Z,98026.13
2023-03-17T19:39:53.593Z,98026.38
2023-03-17T19:42:20.118Z,98021.25
2023-03-17T19:44:46.639Z,98025.03
2023-03-17T19:47:13.143Z,98025.00
2023-03-17T19:49:39.665Z,98030.63
2023-03-17T19:52:07.701Z,98032.56
2023-03-17T19:54:35.164Z,98037.13
2023-03-17T19:57:01.627Z,98034.16
2023-03-17T19:59:28.105Z,98030.88
2023-03-17T20:01:54.727Z,98041.66
2023-03-17T20:04:23.109Z,98040.53
2023-03-17T20:06:55.178Z,98037.88
2023-03-17T20:09:26.266Z,98047.84
2023-03-17T20:11:53.967Z,98050.81
2023-03-17T20:14:20.946Z,98055.34
2023-03-17T20:16:47.910Z,98052.44
2023-03-17T20:19:15.771Z,98054.38
2023-03-17T20:21:42.564Z,98063.78
2023-03-17T20:24:12.285Z,98061.84
2023-03-17T20:26:39.687Z,98068.03
2023-03-17T20:29:06.559Z,98065.31
2023-03-17T20:31:33.904Z,98070.69
2023-03-17T20:34:00.548Z,98063.88
2023-03-17T20:36:27.383Z,98067.41
2023-03-17T20:38:54.518Z,98078.09
2023-03-17T20:41:21.200Z,98077.53
2023-03-17T20:43:48.197Z,98073.63
2023-03-17T20:46:20.598Z,98085.69
2023-03-17T20:48:48.305Z,98087.97
2023-03-17T20:51:16.822Z,98084.69
2023-03-17T20:53:44.894Z,98082.75
2023-03-17T20:56:15.672Z,98091.69
2023-03-17T20:58:43.592Z,98086.63
2023-03-17T21:01:12.804Z,98098.19
2023-03-17T21:03:40.492Z,98094.94
2023-03-17T21:06:07.521Z,98107.06
2023-03-17T21:08:34.361Z,98100.31
2023-03-17T21:11:02.440Z,98106.09
2023-03-17T21:13:29.740Z,98115.84
2023-03-17T21:15:56.731Z,98111.72
2023-03-17T21:18:23.728Z,98113.06
2023-03-17T21:20:50.906Z,98121.69
2023-03-17T21:23:17.493Z,98121.66
2023-03-17T21:25:44.059Z,98121.84
2023-03-17T21:28:11.229Z,98127.38
2023-03-17T21:30:37.798Z,98125.31
2023-03-17T21:33:04.634Z,98126.44
2023-03-17T21:35:34.590Z,98123.59
2023-03-17T21:38:01.987Z,98127.06
2023-03-17T21:40:31.080Z,98128.13
2023-03-17T21:43:00.794Z,98129.22
2023-03-17T21:45:28.470Z,98129.28
2023-03-17T21:47:55.141Z,98129.97
2023-03-17T21:50:21.799Z,98133.63
2023-03-17T21:52:48.784Z,98135.44
2023-03-17T21:55:15.827Z,98138.31
2023-03-17T21:57:42.449Z,98133.34
2023-03-17T22:00:10.548Z,98136.50
2023-03-17T22:02:37.849Z,98138.22
2023-03-17T22:05:05.664Z,98142.38
2023-03-17T22:07:32.956Z,98138.22
2023-03-17T22:10:00.887Z,98147.16
2023-03-17T22:12:27.641Z,98142.91
2023-03-17T22:14:57.946Z,98155.91
2023-03-17T22:17:25.787Z,98154.41
2023-03-17T22:19:53.219Z,98150.47
2023-03-17T22:22:21.058Z,98155.75
2023-03-17T22:24:48.297Z,98149.34
2023-03-17T22:27:17.111Z,98149.28
2023-03-17T22:29:44.309Z,98154.75
2023-03-17T22:32:11.051Z,98151.41
2023-03-17T22:34:37.708Z,98154.75
2023-03-17T22:37:05.147Z,98154.84
2023-03-17T22:39:31.696Z,98152.38
2023-03-17T22:41:58.211Z,98156.38
2023-03-17T22:44:24.771Z,98169.59
2023-03-17T22:46:51.284Z,98161.47
2023-03-17T22:49:17.878Z,98166.38
2023-03-17T22:51:45.956Z,98168.56
2023-03-17T22:54:13.181Z,98177.09
2023-03-17T22:56:39.805Z,98169.56
2023-03-17T22:59:06.714Z,98179.00
2023-03-17T23:01:33.387Z,98171.06
2023-03-17T23:03:59.918Z,98186.19
2023-03-17T23:06:26.645Z,98173.31
2023-03-17T23:08:53.368Z,98182.44
2023-03-17T23:11:23.134Z,98190.94
2023-03-17T23:13:51.370Z,98181.22
2023-03-17T23:16:18.956Z,98184.66
2023-03-17T23:18:46.986Z,98184.97
2023-03-17T23:21:23.062Z,98186.34
2023-03-17T23:23:49.894Z,98193.59
2023-03-17T23:26:16.866Z,98191.16
2023-03-17T23:28:44.900Z,98193.78
2023-03-17T23:31:11.447Z,98202.06
2023-03-17T23:33:38.775Z,98204.34
2023-03-17T23:36:05.946Z,98204.19
2023-03-17T23:38:32.486Z,98201.97
2023-03-17T23:40:59.146Z,98204.56
2023-03-17T23:43:26.076Z,98210.44
2023-03-17T23:45:53.915Z,98206.44
2023-03-17T23:48:21.217Z,98203.03
2023-03-17T23:50:51.584Z,98198.50
2023-03-17T23:53:19.079Z,98204.72
2023-03-17T23:55:45.742Z,98204.00
2023-03-17T23:58:13.780Z,98209.22
